Arctic Princess — UHTA — position and weather

sailwx.info

Track history (hours):
 
Tides and Currents Weather Stations Pressure Air Temp Water Temp Dewpoint Dewpoint Depression Visibility Wind Speed Wind Dir Waves Ship Positions

Arctic Princess

Last reported at 2018-Jun-18 09:48 UTC. Time now 2018-Jun-23 14:18 UTC.
Position N 71°22' E 029°05'.

Length 69 m; draft 4.2 m.

Type: Ship. MMSI: 273219900.

Date/timePositionNaut miles runAvg speedWind from/ knotsBaromVisibWave heightAir tempDewpointWater temp
2018-Jun-18 09:48N 71°22' E 029°05'3 9.0
2018-Jun-18 09:30N 71°20' E 029°11'5 9.3
2018-Jun-18 09:00N 71°17' E 029°21'5 9.3
2018-Jun-18 08:30N 71°13' E 029°31'5 9.1
2018-Jun-18 08:00N 71°10' E 029°41'4 8.9
2018-Jun-18 07:30N 71°07' E 029°51'5 9.1
2018-Jun-18 07:00N 71°04' E 030°01'4 8.9
2018-Jun-18 06:30N 71°01' E 030°11'4 8.8
2018-Jun-18 06:00N 70°58' E 030°20'4 8.7
2018-Jun-18 05:30N 70°55' E 030°30'4 8.8
2018-Jun-18 05:00N 70°52' E 030°39'5 8.8
2018-Jun-18 04:29N 70°48' E 030°49'5 9.1
2018-Jun-18 03:59N 70°45' E 030°59'5 9.1
2018-Jun-18 03:29N 70°42' E 031°08'4 9.2
2018-Jun-18 03:00N 70°39' E 031°18'5 9.5
2018-Jun-18 02:30N 70°35' E 031°28'5 9.7
2018-Jun-18 01:59N 70°32' E 031°38'93 7.7
2018-Jun-17 13:53N 69°03' E 033°05'2 5.7
2018-Jun-17 13:30N 69°01' E 033°03'3 6.5
2018-Jun-17 13:00N 68°58' E 033°02'1 2.8
2018-Jun-17 12:30N 68°57' E 033°02'0 0.0
2018-Jun-17 11:59N 68°57' E 033°02'0 0.0
2018-Jun-17 11:29N 68°57' E 033°02'0 0.0
2018-Jun-17 10:59N 68°57' E 033°02'0 0.0
2018-Jun-17 10:29N 68°57' E 033°02'0 0.0
2018-Jun-17 09:59N 68°57' E 033°02'0 0.0
2018-Jun-17 09:29N 68°57' E 033°02'0 0.0
2018-Jun-17 08:59N 68°57' E 033°02'0 0.0
2018-Jun-17 08:29N 68°57' E 033°02'0 0.0
2018-Jun-17 07:59N 68°57' E 033°02'0 0.0
2018-Jun-17 07:30N 68°57' E 033°02'0 0.0
2018-Jun-17 06:59N 68°57' E 033°02'0 0.0
2018-Jun-17 06:29N 68°57' E 033°02'0 0.0
2018-Jun-17 05:59N 68°57' E 033°02'0 0.0
2018-Jun-17 05:29N 68°57' E 033°02'0 0.0
2018-Jun-17 04:59N 68°57' E 033°02'0 0.0
2018-Jun-17 04:29N 68°57' E 033°02'0 0.0
2018-Jun-17 03:59N 68°57' E 033°02'0 0.0
2018-Jun-17 03:29N 68°57' E 033°02'0 0.0
2018-Jun-17 02:59N 68°57' E 033°02'0 0.0
2018-Jun-17 02:29N 68°57' E 033°02'0 0.0
2018-Jun-17 01:59N 68°57' E 033°02'0 0.0
2018-Jun-17 01:29N 68°57' E 033°02'0 0.0
2018-Jun-17 00:59N 68°57' E 033°02'0 0.0
2018-Jun-17 00:29N 68°57' E 033°02'0 0.0
2018-Jun-16 23:59N 68°57' E 033°02'0 0.0
2018-Jun-16 23:29N 68°57' E 033°02'0 0.0
2018-Jun-16 22:59N 68°57' E 033°02'0 0.0
2018-Jun-16 22:29N 68°57' E 033°02'0 0.0
2018-Jun-16 21:59N 68°57' E 033°02'0 0.0
2018-Jun-16 21:29N 68°57' E 033°02'0 0.0
2018-Jun-16 20:56N 68°57' E 033°02'0 0.0
2018-Jun-16 20:29N 68°57' E 033°02'0 0.0
2018-Jun-16 19:59N 68°57' E 033°02'0 0.0
2018-Jun-16 19:29N 68°57' E 033°02'0 0.0
2018-Jun-16 18:59N 68°57' E 033°02'0 0.0
2018-Jun-16 18:29N 68°57' E 033°02'0 0.0
2018-Jun-16 18:01N 68°57' E 033°02'0 0.0
2018-Jun-16 17:30N 68°57' E 033°02'0 0.0
2018-Jun-15 07:14N 68°57' E 033°02'0 0.0
2018-Jun-15 06:59N 68°57' E 033°02'0 0.0
2018-Jun-15 06:23N 68°57' E 033°02'0 0.0
2018-Jun-15 05:59N 68°57' E 033°02'0 0.0
2018-Jun-15 05:29N 68°57' E 033°02'0 0.0
2018-Jun-15 04:59N 68°57' E 033°02'0 0.0
2018-Jun-15 04:29N 68°57' E 033°02'0 0.0
2018-Jun-15 03:59N 68°57' E 033°02'0 0.0
2018-Jun-15 03:29N 68°57' E 033°02'0 0.0
2018-Jun-15 02:59N 68°57' E 033°02'0 0.0
2018-Jun-15 02:29N 68°57' E 033°02'0 0.0
2018-Jun-15 01:59N 68°57' E 033°02'0 0.0
2018-Jun-15 01:29N 68°57' E 033°02'0 0.0
2018-Jun-15 00:59N 68°57' E 033°02'0 0.0
2018-Jun-15 00:29N 68°57' E 033°02'0 0.0
2018-Jun-14 23:59N 68°57' E 033°02'0 0.0
2018-Jun-14 23:29N 68°57' E 033°02'0 0.0
2018-Jun-14 22:59N 68°57' E 033°02'0 0.0
2018-Jun-14 22:29N 68°57' E 033°02'0 0.0
2018-Jun-14 21:59N 68°57' E 033°02'0 0.0
2018-Jun-14 21:29N 68°57' E 033°02'0 0.0
2018-Jun-14 20:59N 68°57' E 033°02'0 0.0
2018-Jun-14 20:29N 68°57' E 033°02'0 0.0
2018-Jun-14 19:59N 68°57' E 033°02'0 0.0
2018-Jun-14 19:29N 68°57' E 033°02'0 0.0
2018-Jun-14 18:59N 68°57' E 033°02'0 0.0
2018-Jun-14 18:29N 68°57' E 033°02'0 0.0
2018-Jun-14 17:59N 68°57' E 033°02'0 0.0
2018-Jun-14 17:29N 68°57' E 033°02'0 0.0
2018-Jun-14 16:59N 68°57' E 033°02'0 0.0
2018-Jun-14 16:29N 68°57' E 033°02'0 0.0
2018-Jun-14 15:59N 68°57' E 033°02'0 0.0
2018-Jun-14 15:31N 68°57' E 033°02'0 0.0
2018-Jun-14 14:58N 68°57' E 033°02'0 0.0
2018-Jun-14 14:28N 68°57' E 033°02'0 0.0
2018-Jun-14 13:58N 68°57' E 033°02'0 0.0
2018-Jun-14 13:28N 68°57' E 033°02'0 0.0
2018-Jun-14 12:55N 68°57' E 033°02'0 0.0
2018-Jun-14 12:28N 68°57' E 033°02'0 0.0
2018-Jun-14 11:58N 68°57' E 033°02'0 0.0
2018-Jun-14 11:28N 68°57' E 033°02'0 0.0
2018-Jun-14 10:58N 68°57' E 033°02'0 0.0
2018-Jun-14 10:28N 68°57' E 033°02'0 0.0
2018-Jun-14 09:58N 68°57' E 033°02'1 1.2
2018-Jun-14 09:31N 68°57' E 033°01'3 5.1
2018-Jun-14 09:01N 68°60' E 033°02'3 5.9
2018-Jun-14 08:31N 69°03' E 033°03'  
Track history (hours):
 
Tides and Currents Weather Stations Pressure Air Temp Water Temp Dewpoint Dewpoint Depression Visibility Wind Speed Wind Dir Waves Ship Positions

Arctic Princess

Last reported at 2018-Jun-18 09:48 UTC. Time now 2018-Jun-23 14:18 UTC.
Position N 71°22' E 029°05'.

Length 69 m; draft 4.2 m.

Type: Ship. MMSI: 273219900.

Date/timePositionNaut miles runAvg speedWind from/ knotsBaromVisibWave heightAir tempDewpointWater temp
2018-Jun-18 09:48N 71°22' E 029°05'3 9.0
2018-Jun-18 09:30N 71°20' E 029°11'5 9.3
2018-Jun-18 09:00N 71°17' E 029°21'5 9.3
2018-Jun-18 08:30N 71°13' E 029°31'5 9.1
2018-Jun-18 08:00N 71°10' E 029°41'4 8.9
2018-Jun-18 07:30N 71°07' E 029°51'5 9.1
2018-Jun-18 07:00N 71°04' E 030°01'4 8.9
2018-Jun-18 06:30N 71°01' E 030°11'4 8.8
2018-Jun-18 06:00N 70°58' E 030°20'4 8.7
2018-Jun-18 05:30N 70°55' E 030°30'4 8.8
2018-Jun-18 05:00N 70°52' E 030°39'5 8.8
2018-Jun-18 04:29N 70°48' E 030°49'5 9.1
2018-Jun-18 03:59N 70°45' E 030°59'5 9.1
2018-Jun-18 03:29N 70°42' E 031°08'4 9.2
2018-Jun-18 03:00N 70°39' E 031°18'5 9.5
2018-Jun-18 02:30N 70°35' E 031°28'5 9.7
2018-Jun-18 01:59N 70°32' E 031°38'93 7.7
2018-Jun-17 13:53N 69°03' E 033°05'2 5.7
2018-Jun-17 13:30N 69°01' E 033°03'3 6.5
2018-Jun-17 13:00N 68°58' E 033°02'1 2.8
2018-Jun-17 12:30N 68°57' E 033°02'0 0.0
2018-Jun-17 11:59N 68°57' E 033°02'0 0.0
2018-Jun-17 11:29N 68°57' E 033°02'0 0.0
2018-Jun-17 10:59N 68°57' E 033°02'0 0.0
2018-Jun-17 10:29N 68°57' E 033°02'0 0.0
2018-Jun-17 09:59N 68°57' E 033°02'0 0.0
2018-Jun-17 09:29N 68°57' E 033°02'0 0.0
2018-Jun-17 08:59N 68°57' E 033°02'0 0.0
2018-Jun-17 08:29N 68°57' E 033°02'0 0.0
2018-Jun-17 07:59N 68°57' E 033°02'0 0.0
2018-Jun-17 07:30N 68°57' E 033°02'0 0.0
2018-Jun-17 06:59N 68°57' E 033°02'0 0.0
2018-Jun-17 06:29N 68°57' E 033°02'0 0.0
2018-Jun-17 05:59N 68°57' E 033°02'0 0.0
2018-Jun-17 05:29N 68°57' E 033°02'0 0.0
2018-Jun-17 04:59N 68°57' E 033°02'0 0.0
2018-Jun-17 04:29N 68°57' E 033°02'0 0.0
2018-Jun-17 03:59N 68°57' E 033°02'0 0.0
2018-Jun-17 03:29N 68°57' E 033°02'0 0.0
2018-Jun-17 02:59N 68°57' E 033°02'0 0.0
2018-Jun-17 02:29N 68°57' E 033°02'0 0.0
2018-Jun-17 01:59N 68°57' E 033°02'0 0.0
2018-Jun-17 01:29N 68°57' E 033°02'0 0.0
2018-Jun-17 00:59N 68°57' E 033°02'0 0.0
2018-Jun-17 00:29N 68°57' E 033°02'0 0.0
2018-Jun-16 23:59N 68°57' E 033°02'0 0.0
2018-Jun-16 23:29N 68°57' E 033°02'0 0.0
2018-Jun-16 22:59N 68°57' E 033°02'0 0.0
2018-Jun-16 22:29N 68°57' E 033°02'0 0.0
2018-Jun-16 21:59N 68°57' E 033°02'0 0.0
2018-Jun-16 21:29N 68°57' E 033°02'0 0.0
2018-Jun-16 20:56N 68°57' E 033°02'0 0.0
2018-Jun-16 20:29N 68°57' E 033°02'0 0.0
2018-Jun-16 19:59N 68°57' E 033°02'0 0.0
2018-Jun-16 19:29N 68°57' E 033°02'0 0.0
2018-Jun-16 18:59N 68°57' E 033°02'0 0.0
2018-Jun-16 18:29N 68°57' E 033°02'0 0.0
2018-Jun-16 18:01N 68°57' E 033°02'0 0.0
2018-Jun-16 17:30N 68°57' E 033°02'0 0.0
2018-Jun-15 07:14N 68°57' E 033°02'0 0.0
2018-Jun-15 06:59N 68°57' E 033°02'0 0.0
2018-Jun-15 06:23N 68°57' E 033°02'0 0.0
2018-Jun-15 05:59N 68°57' E 033°02'0 0.0
2018-Jun-15 05:29N 68°57' E 033°02'0 0.0
2018-Jun-15 04:59N 68°57' E 033°02'0 0.0
2018-Jun-15 04:29N 68°57' E 033°02'0 0.0
2018-Jun-15 03:59N 68°57' E 033°02'0 0.0
2018-Jun-15 03:29N 68°57' E 033°02'0 0.0
2018-Jun-15 02:59N 68°57' E 033°02'0 0.0
2018-Jun-15 02:29N 68°57' E 033°02'0 0.0
2018-Jun-15 01:59N 68°57' E 033°02'0 0.0
2018-Jun-15 01:29N 68°57' E 033°02'0 0.0
2018-Jun-15 00:59N 68°57' E 033°02'0 0.0
2018-Jun-15 00:29N 68°57' E 033°02'0 0.0
2018-Jun-14 23:59N 68°57' E 033°02'0 0.0
2018-Jun-14 23:29N 68°57' E 033°02'0 0.0
2018-Jun-14 22:59N 68°57' E 033°02'0 0.0
2018-Jun-14 22:29N 68°57' E 033°02'0 0.0
2018-Jun-14 21:59N 68°57' E 033°02'0 0.0
2018-Jun-14 21:29N 68°57' E 033°02'0 0.0
2018-Jun-14 20:59N 68°57' E 033°02'0 0.0
2018-Jun-14 20:29N 68°57' E 033°02'0 0.0
2018-Jun-14 19:59N 68°57' E 033°02'0 0.0
2018-Jun-14 19:29N 68°57' E 033°02'0 0.0
2018-Jun-14 18:59N 68°57' E 033°02'0 0.0
2018-Jun-14 18:29N 68°57' E 033°02'0 0.0
2018-Jun-14 17:59N 68°57' E 033°02'0 0.0
2018-Jun-14 17:29N 68°57' E 033°02'0 0.0
2018-Jun-14 16:59N 68°57' E 033°02'0 0.0
2018-Jun-14 16:29N 68°57' E 033°02'0 0.0
2018-Jun-14 15:59N 68°57' E 033°02'0 0.0
2018-Jun-14 15:31N 68°57' E 033°02'0 0.0
2018-Jun-14 14:58N 68°57' E 033°02'0 0.0
2018-Jun-14 14:28N 68°57' E 033°02'0 0.0
2018-Jun-14 13:58N 68°57' E 033°02'0 0.0
2018-Jun-14 13:28N 68°57' E 033°02'0 0.0
2018-Jun-14 12:55N 68°57' E 033°02'0 0.0
2018-Jun-14 12:28N 68°57' E 033°02'0 0.0
2018-Jun-14 11:58N 68°57' E 033°02'0 0.0
2018-Jun-14 11:28N 68°57' E 033°02'0 0.0
2018-Jun-14 10:58N 68°57' E 033°02'0 0.0
2018-Jun-14 10:28N 68°57' E 033°02'0 0.0
2018-Jun-14 09:58N 68°57' E 033°02'1 1.2
2018-Jun-14 09:31N 68°57' E 033°01'3 5.1
2018-Jun-14 09:01N 68°60' E 033°02'3 5.9
2018-Jun-14 08:31N 69°03' E 033°03'  

Dump ship's entire track history